createdAt,value
2022-10-06T00:00:18.356Z,100.00
2022-10-06T00:04:08.189Z,100.00
2022-10-06T00:07:50.890Z,100.00
2022-10-06T00:11:40.617Z,100.00
2022-10-06T00:15:29.530Z,100.00
2022-10-06T00:19:18.546Z,100.00
2022-10-06T00:23:07.427Z,100.00
2022-10-06T00:26:56.201Z,100.00
2022-10-06T00:30:34.920Z,100.00
2022-10-06T00:34:02.435Z,100.00
2022-10-06T00:37:51.285Z,100.00
2022-10-06T00:41:30.097Z,100.00
2022-10-06T00:45:17.584Z,100.00
2022-10-06T00:48:50.724Z,100.00
2022-10-06T00:52:04.160Z,100.00
2022-10-06T00:55:54.170Z,100.00
2022-10-06T00:59:43.006Z,100.00
2022-10-06T01:03:16.517Z,100.00
2022-10-06T01:07:06.969Z,100.00
2022-10-06T01:10:49.044Z,100.00
2022-10-06T01:14:06.699Z,100.00
2022-10-06T01:17:48.155Z,100.00
2022-10-06T01:21:00.406Z,100.00
2022-10-06T01:24:38.047Z,100.00
2022-10-06T01:28:18.270Z,100.00
2022-10-06T01:31:32.751Z,100.00
2022-10-06T01:35:17.880Z,100.00
2022-10-06T01:38:57.655Z,100.00
2022-10-06T01:42:40.462Z,100.00
2022-10-06T01:46:36.505Z,100.00
2022-10-06T01:50:25.488Z,100.00
2022-10-06T01:53:59.179Z,100.00
2022-10-06T01:57:36.416Z,100.00
2022-10-06T02:00:39.853Z,100.00
2022-10-06T02:04:28.695Z,100.00
2022-10-06T02:08:17.601Z,100.00
2022-10-06T02:11:59.221Z,100.00
2022-10-06T02:15:48.164Z,100.00
2022-10-06T02:19:35.696Z,100.00
2022-10-06T02:23:24.614Z,100.00
2022-10-06T02:26:57.897Z,100.00
2022-10-06T02:30:33.576Z,100.00
2022-10-06T02:33:58.969Z,100.00
2022-10-06T02:37:47.781Z,100.00
2022-10-06T02:41:28.214Z,100.00
2022-10-06T02:45:16.111Z,100.00
2022-10-06T02:48:57.615Z,100.00
2022-10-06T02:52:46.607Z,100.00
2022-10-06T02:56:15.443Z,100.00
2022-10-06T03:00:04.065Z,100.00
2022-10-06T03:03:36.307Z,100.00
2022-10-06T03:06:58.938Z,100.00
2022-10-06T03:10:47.992Z,100.00
2022-10-06T03:14:29.625Z,100.00
2022-10-06T03:18:18.677Z,100.00
2022-10-06T03:22:07.239Z,100.00
2022-10-06T03:25:34.781Z,100.00
2022-10-06T03:28:50.583Z,100.00
2022-10-06T03:32:33.186Z,100.00
2022-10-06T03:36:21.683Z,100.00
2022-10-06T03:40:07.512Z,100.00
2022-10-06T03:43:48.869Z,100.00
2022-10-06T03:47:37.698Z,100.00
2022-10-06T03:51:26.529Z,100.00
2022-10-06T03:55:15.470Z,100.00
2022-10-06T03:59:04.368Z,100.00
2022-10-06T04:02:55.829Z,100.00
2022-10-06T04:06:44.688Z,100.00
2022-10-06T04:10:28.925Z,100.00
2022-10-06T04:14:17.717Z,100.00
2022-10-06T04:18:05.163Z,100.00
2022-10-06T04:21:53.576Z,100.00
2022-10-06T04:25:41.264Z,100.00
2022-10-06T04:29:30.138Z,100.00
2022-10-06T04:33:20.053Z,100.00
2022-10-06T04:37:09.116Z,100.00
2022-10-06T04:40:43.448Z,100.00
2022-10-06T04:44:01.689Z,100.00
2022-10-06T04:47:20.982Z,100.00
2022-10-06T04:50:59.794Z,100.00
2022-10-06T04:54:49.211Z,100.00
2022-10-06T04:58:38.791Z,100.00
2022-10-06T05:02:27.833Z,100.00
2022-10-06T05:06:13.104Z,100.00
2022-10-06T05:10:02.190Z,100.00
2022-10-06T05:13:51.100Z,100.00
2022-10-06T05:16:55.756Z,100.00
2022-10-06T05:20:13.638Z,100.00
2022-10-06T05:23:40.475Z,100.00
2022-10-06T05:27:28.304Z,100.00
2022-10-06T05:31:07.904Z,100.00
2022-10-06T05:34:57.473Z,100.00
2022-10-06T05:38:41.651Z,100.00
2022-10-06T05:42:31.941Z,100.00
2022-10-06T05:46:10.298Z,100.00
2022-10-06T05:49:54.220Z,100.00
2022-10-06T05:53:43.242Z,100.00
2022-10-06T05:57:27.996Z,100.00
2022-10-06T06:00:56.566Z,100.00
2022-10-06T06:04:48.248Z,100.00
2022-10-06T06:08:32.477Z,100.00
2022-10-06T06:12:00.457Z,100.00
2022-10-06T06:15:51.148Z,100.00
2022-10-06T06:19:40.211Z,100.00
2022-10-06T06:23:20.561Z,100.00
2022-10-06T06:27:09.439Z,100.00
2022-10-06T06:30:50.755Z,100.00
2022-10-06T06:34:39.830Z,100.00
2022-10-06T06:38:29.131Z,100.00
2022-10-06T06:42:18.800Z,100.00
2022-10-06T06:46:08.856Z,100.00
2022-10-06T06:50:06.925Z,100.00
2022-10-06T06:53:55.761Z,100.00
2022-10-06T06:57:38.331Z,100.00
2022-10-06T07:01:27.368Z,100.00
2022-10-06T07:05:16.190Z,100.00
2022-10-06T07:09:04.821Z,100.00
2022-10-06T07:12:53.646Z,100.00
2022-10-06T07:16:41.353Z,100.00
2022-10-06T07:20:28.955Z,100.00
2022-10-06T07:24:16.059Z,100.00
2022-10-06T07:28:05.149Z,100.00
2022-10-06T07:31:47.404Z,100.00
2022-10-06T07:35:30.518Z,100.00
2022-10-06T07:39:20.062Z,100.00
2022-10-06T07:43:09.724Z,100.00
2022-10-06T07:46:59.664Z,100.00
2022-10-06T07:50:49.089Z,100.00
2022-10-06T07:54:38.101Z,100.00
2022-10-06T07:58:27.124Z,100.00
2022-10-06T08:02:16.174Z,100.00
2022-10-06T08:05:48.149Z,100.00
2022-10-06T08:09:32.035Z,100.00
2022-10-06T08:13:21.113Z,100.00
2022-10-06T08:17:10.391Z,100.00
2022-10-06T08:20:46.959Z,100.00
2022-10-06T08:25:01.133Z,100.00
2022-10-06T08:28:44.852Z,100.00
2022-10-06T08:32:34.360Z,100.00
2022-10-06T08:36:27.038Z,100.00
2022-10-06T08:40:22.143Z,100.00
2022-10-06T08:44:11.723Z,100.00
2022-10-06T08:48:00.863Z,100.00
2022-10-06T08:52:01.977Z,100.00
2022-10-06T08:55:53.900Z,100.00
2022-10-06T08:59:43.002Z,100.00
2022-10-06T09:03:32.571Z,100.00
2022-10-06T09:07:42.832Z,100.00
2022-10-06T09:11:47.491Z,100.00
2022-10-06T09:15:40.346Z,100.00
2022-10-06T09:19:38.710Z,100.00
2022-10-06T09:23:26.214Z,100.00
2022-10-06T09:27:15.663Z,100.00
2022-10-06T09:31:04.730Z,100.00
2022-10-06T09:35:05.888Z,100.00
2022-10-06T09:38:55.184Z,100.00
2022-10-06T09:42:44.626Z,100.00
2022-10-06T09:46:34.366Z,100.00
2022-10-06T09:50:26.547Z,100.00
2022-10-06T09:54:15.963Z,100.00
2022-10-06T09:58:17.864Z,100.00
2022-10-06T10:02:07.719Z,100.00
2022-10-06T10:05:59.521Z,100.00
2022-10-06T10:09:58.066Z,100.00
2022-10-06T10:13:59.516Z,100.00
2022-10-06T10:17:50.260Z,99.72
2022-10-06T10:21:48.462Z,99.52
2022-10-06T10:25:43.359Z,99.80
2022-10-06T10:29:47.451Z,97.32
2022-10-06T10:33:36.424Z,89.92
2022-10-06T10:37:31.856Z,88.37
2022-10-06T10:41:21.805Z,85.50
2022-10-06T10:45:20.524Z,84.33
2022-10-06T10:49:19.061Z,89.08
2022-10-06T10:53:14.212Z,93.12
2022-10-06T10:57:03.576Z,99.44
2022-10-06T11:01:01.914Z,100.00
2022-10-06T11:04:51.434Z,96.33
2022-10-06T11:08:40.568Z,84.29
2022-10-06T11:12:35.436Z,71.97
2022-10-06T11:16:27.533Z,65.92
2022-10-06T11:20:35.009Z,70.32
2022-10-06T11:24:30.138Z,64.66
2022-10-06T11:28:27.895Z,70.24
2022-10-06T11:32:22.432Z,62.78
2022-10-06T11:36:24.589Z,57.09
2022-10-06T11:40:19.844Z,52.69
2022-10-06T11:44:26.832Z,53.33
2022-10-06T11:48:16.332Z,53.63
2022-10-06T11:52:11.512Z,50.23
2022-10-06T11:56:13.304Z,51.08
2022-10-06T12:03:59.393Z,51.28
2022-10-06T12:07:47.809Z,52.19
2022-10-06T12:11:35.755Z,52.68
2022-10-06T12:19:27.312Z,49.62
2022-10-06T12:23:15.636Z,51.34
2022-10-06T12:26:42.626Z,53.02
2022-10-06T12:30:53.380Z,53.30
2022-10-06T12:34:31.869Z,52.18
2022-10-06T12:38:20.081Z,51.06
2022-10-06T12:42:10.485Z,50.36
2022-10-06T12:45:58.517Z,50.30
2022-10-06T12:49:47.306Z,49.84
2022-10-06T12:53:44.148Z,50.07
2022-10-06T12:57:41.367Z,50.80
2022-10-06T13:01:31.087Z,51.27
2022-10-06T13:05:33.747Z,52.27
2022-10-06T13:09:21.504Z,50.09
2022-10-06T13:13:24.657Z,49.67
2022-10-06T13:17:12.787Z,49.58
2022-10-06T13:21:00.448Z,49.99
2022-10-06T13:24:47.691Z,49.98
2022-10-06T13:28:28.398Z,50.15
2022-10-06T13:32:20.135Z,48.44
2022-10-06T13:36:03.259Z,47.44
2022-10-06T13:39:53.925Z,46.20
2022-10-06T13:43:41.597Z,46.71
2022-10-06T13:47:29.655Z,47.04
2022-10-06T13:51:17.275Z,47.79
2022-10-06T13:55:24.282Z,47.40
2022-10-06T13:59:15.371Z,46.63
2022-10-06T14:03:16.984Z,48.02
2022-10-06T14:07:11.074Z,47.46
2022-10-06T14:11:06.408Z,47.11
2022-10-06T14:15:01.953Z,46.58
2022-10-06T14:18:46.577Z,47.34
2022-10-06T14:22:40.962Z,46.96
2022-10-06T14:26:30.708Z,46.95
2022-10-06T14:30:21.292Z,46.10
2022-10-06T14:34:09.444Z,46.07
2022-10-06T14:38:00.297Z,45.74
2022-10-06T14:41:48.986Z,46.63
2022-10-06T14:45:27.615Z,46.96
2022-10-06T14:49:13.977Z,45.43
2022-10-06T14:53:02.079Z,45.23
2022-10-06T14:56:43.784Z,46.09
2022-10-06T15:00:32.989Z,45.72
2022-10-06T15:04:24.686Z,47.52
2022-10-06T15:07:47.555Z,49.38
2022-10-06T15:11:23.005Z,49.13
2022-10-06T15:14:36.384Z,49.49
2022-10-06T15:17:55.297Z,50.75
2022-10-06T15:21:00.474Z,52.90
2022-10-06T15:24:20.471Z,53.40
2022-10-06T15:31:33.925Z,55.33
2022-10-06T15:34:47.144Z,55.98
2022-10-06T15:38:03.737Z,57.65
2022-10-06T15:42:10.238Z,58.58
2022-10-06T15:46:38.305Z,60.23
2022-10-06T15:50:00.920Z,60.79
2022-10-06T15:53:48.841Z,63.65
2022-10-06T15:57:38.018Z,65.03
2022-10-06T16:01:09.671Z,66.09
2022-10-06T16:04:57.583Z,67.32
2022-10-06T16:08:46.208Z,65.61
2022-10-06T16:12:27.733Z,65.75
2022-10-06T16:16:16.092Z,65.87
2022-10-06T16:19:58.415Z,66.81
2022-10-06T16:23:46.953Z,72.31
2022-10-06T16:27:35.641Z,78.60
2022-10-06T16:31:24.026Z,79.66
2022-10-06T16:35:05.397Z,83.16
2022-10-06T16:38:53.963Z,88.90
2022-10-06T16:42:42.313Z,90.63
2022-10-06T16:46:20.337Z,90.61
2022-10-06T16:50:08.459Z,94.02
2022-10-06T16:53:56.686Z,100.00
2022-10-06T16:57:37.198Z,99.79
2022-10-06T17:01:25.087Z,100.00
2022-10-06T17:05:17.427Z,100.00
2022-10-06T17:09:05.257Z,100.00
2022-10-06T17:12:56.020Z,100.00
2022-10-06T17:16:44.844Z,100.00
2022-10-06T17:20:32.812Z,100.00
2022-10-06T17:24:06.272Z,100.00
2022-10-06T17:27:31.456Z,100.00
2022-10-06T17:30:51.212Z,100.00
2022-10-06T17:34:21.188Z,100.00
2022-10-06T17:38:02.578Z,100.00
2022-10-06T17:41:15.830Z,100.00
2022-10-06T17:44:32.287Z,100.00
2022-10-06T17:48:04.276Z,100.00
2022-10-06T17:51:50.847Z,100.00
2022-10-06T17:55:39.104Z,100.00
2022-10-06T17:59:32.843Z,100.00
2022-10-06T18:03:13.165Z,100.00
2022-10-06T18:06:40.650Z,100.00
2022-10-06T18:10:27.427Z,100.00
2022-10-06T18:14:16.253Z,100.00
2022-10-06T18:17:43.998Z,100.00
2022-10-06T18:20:41.457Z,100.00
2022-10-06T18:24:08.978Z,100.00
2022-10-06T18:27:40.832Z,100.00
2022-10-06T18:30:54.340Z,100.00
2022-10-06T18:38:24.909Z,100.00
2022-10-06T18:42:05.777Z,100.00
2022-10-06T18:45:52.515Z,100.00
2022-10-06T18:49:27.587Z,100.00
2022-10-06T18:52:45.228Z,100.00
2022-10-06T18:55:54.260Z,100.00
2022-10-06T18:59:43.722Z,100.00
2022-10-06T19:03:14.400Z,100.00
2022-10-06T19:07:05.153Z,100.00
2022-10-06T19:10:38.532Z,100.00
2022-10-06T19:13:57.481Z,100.00
2022-10-06T19:17:22.170Z,100.00
2022-10-06T19:20:45.388Z,100.00
2022-10-06T19:24:08.906Z,100.00
2022-10-06T19:27:49.022Z,100.00
2022-10-06T19:31:26.035Z,100.00
2022-10-06T19:34:56.103Z,100.00
2022-10-06T19:38:45.233Z,100.00
2022-10-06T19:42:18.445Z,100.00
2022-10-06T19:45:54.143Z,100.00
2022-10-06T19:49:31.396Z,100.00
2022-10-06T19:52:57.161Z,100.00
2022-10-06T19:56:25.282Z,100.00
2022-10-06T19:59:43.955Z,100.00
2022-10-06T20:03:07.108Z,100.00
2022-10-06T20:06:45.082Z,100.00
2022-10-06T20:10:26.634Z,100.00
2022-10-06T20:14:19.778Z,100.00
2022-10-06T20:18:08.267Z,100.00
2022-10-06T20:21:41.357Z,100.00
2022-10-06T20:25:12.436Z,100.00
2022-10-06T20:28:59.789Z,100.00
2022-10-06T20:32:38.534Z,100.00
2022-10-06T20:36:21.828Z,100.00
2022-10-06T20:39:38.874Z,100.00
2022-10-06T20:42:44.452Z,100.00
2022-10-06T20:46:17.967Z,100.00
2022-10-06T20:49:31.185Z,100.00
2022-10-06T20:52:42.624Z,100.00
2022-10-06T20:56:22.043Z,100.00
2022-10-06T20:59:25.482Z,100.00
2022-10-06T21:02:41.585Z,100.00
2022-10-06T21:05:42.969Z,100.00
2022-10-06T21:08:44.008Z,100.00
2022-10-06T21:11:37.248Z,100.00
2022-10-06T21:14:54.566Z,100.00
2022-10-06T21:18:13.300Z,100.00
2022-10-06T21:21:29.711Z,100.00
2022-10-06T21:25:11.031Z,100.00
2022-10-06T21:28:22.085Z,100.00
2022-10-06T21:31:23.614Z,100.00
2022-10-06T21:35:02.780Z,100.00
2022-10-06T21:38:43.337Z,100.00
2022-10-06T21:42:10.015Z,100.00
2022-10-06T21:45:24.365Z,100.00
2022-10-06T21:48:22.334Z,100.00
2022-10-06T21:51:48.870Z,100.00
2022-10-06T21:54:57.432Z,100.00
2022-10-06T21:58:45.604Z,100.00
2022-10-06T22:02:04.604Z,100.00
2022-10-06T22:05:22.004Z,100.00
2022-10-06T22:08:14.954Z,100.00
2022-10-06T22:11:43.148Z,100.00
2022-10-06T22:15:05.560Z,100.00
2022-10-06T22:18:05.263Z,100.00
2022-10-06T22:21:08.932Z,100.00
2022-10-06T22:24:14.215Z,100.00
2022-10-06T22:28:01.829Z,100.00
2022-10-06T22:31:08.170Z,100.00
2022-10-06T22:34:32.096Z,100.00
2022-10-06T22:37:30.830Z,100.00
2022-10-06T22:40:39.280Z,100.00
2022-10-06T22:43:34.561Z,100.00
2022-10-06T22:46:31.975Z,100.00
2022-10-06T22:49:19.337Z,100.00
2022-10-06T22:52:03.289Z,100.00
2022-10-06T22:54:43.420Z,100.00
2022-10-06T22:57:36.062Z,100.00
2022-10-06T23:00:26.856Z,100.00
2022-10-06T23:03:57.317Z,100.00
2022-10-06T23:07:18.478Z,100.00
2022-10-06T23:10:21.091Z,100.00
2022-10-06T23:12:53.534Z,100.00
2022-10-06T23:15:24.424Z,100.00
2022-10-06T23:18:08.032Z,100.00
2022-10-06T23:21:39.157Z,100.00
2022-10-06T23:24:29.973Z,100.00
2022-10-06T23:27:10.601Z,100.00
2022-10-06T23:29:50.619Z,100.00
2022-10-06T23:33:03.980Z,100.00
2022-10-06T23:35:42.162Z,100.00
2022-10-06T23:38:22.858Z,100.00
2022-10-06T23:41:27.526Z,100.00
2022-10-06T23:44:32.720Z,100.00
2022-10-06T23:48:03.042Z,100.00
2022-10-06T23:51:43.631Z,100.00
2022-10-06T23:55:30.038Z,100.00
2022-10-06T23:58:29.573Z,100.00
